Selma, OR

3:34 AM PDT on August 22, 2014 (GMT -0700)
Oregon Builders Guild LLC 541-592-6014 | Change Station
CLOSE
Current Station
Personal Weather Station
Location: Cave Junction, OR
Elevation: 1332 ft
Nearby Weather Stations

Elev 1332 ft 42.16 °N, 123.65 °W | Updated 2 minutes ago

Overcast
Overcast
50.7 °F
Feels Like 50.7 °F
N
0.0
Wind Variable Wind from NE

Today
High -- | Low -- °F
--% Chance of Precip.
Yesterday
High -- | Low -- °F
Precip. -- in
6:29 AM 8:04 PM
Waning Crescent, 9% visible
Pressure 29.96 in
Visibility 10.0 miles
Clouds Overcast 6500 ft
Dew Point 45 °F
Humidity 80%
Rainfall 0.00 in
Snow Depth 0 in
UV 0 out of 12
Pollen 5.30 out of 12
Air Quality Not available.
Flu Activity Not available.
METAR KMFR 220953Z AUTO 03004KT 10SM OVC065 19/08 A2999 RMK AO2 SLP143 T01940078

More Conditions Fewer Conditions

Pressure 29.96 in
Visibility 10.0 miles
Clouds Overcast 6500 ft
Dew Point 45 °F
Humidity 80%
Rainfall 0.00 in
Snow Depth 0 in
UV 0 out of 12
Pollen 5.30 out of 12
Air Quality Not available.
Flu Activity Not available.
METAR KMFR 220953Z AUTO 03004KT 10SM OVC065 19/08 A2999 RMK AO2 SLP143 T01940078

More Conditions Fewer Conditions

10-Day Weather Forecast

Almanac

Astronomy

Aug. 22, 2014 Rise Set
Actual Time 6:29 AM PDT 8:04 PM PDT
Civil Twilight 5:59 AM PDT 8:33 PM PDT
Nautical Twilight 5:23 AM PDT 9:09 PM PDT
Astronomical Twilight 4:45 AM PDT 9:47 PM PDT
Moon 3:55 AM PDT 6:17 PM PDT
Length of Visible Light 14h 34m
Length of Day
13h 35m
Tomorrow will be 2m 39s shorter.
Waning Crescent, 9% of the Moon is Illuminated
Today
Waning Crescent
Aug 25
New
Sep 2
First Quarter
Sep 8
Full
Sep 15
Last Quarter

Today's Extremes

State Highs State Lows

Community

WunderPhotos

Upload Photos

1,746,149 photos uploaded!

Nearby

Snow Depth

Station Depth Elevation
Bigelow Camp 0 in 5120 ft
Big Red Mountain 0 in 6250 ft
Fish Lake 0 in 4665 ft
Billie Creek Divide 0 in 5300 ft
Fourmile Lake 2 in 6000 ft

Earthquake Activity

City Distance Mag. Time & Date
No recent earthquake activity has been reported nearby.
Minimum magnitude displayed is 2.5.

Coastal Water Temperatures

Place Temperature
No Stations Reporting

Nearby Weather Stations